DAAG/ALG METAR and TAF weather

Enter ICAO airport designator
Station Type Date Time Source
DAAG METAR 2019/10/18 06:00 UTC NOAA

DAAG 180600Z 00000KT 9999 FEW020 SCT200 13/12 Q1018


Station Type Date Time Source
DAAG Decoded METAR 2019/10/18 06:00 UTC NOAA

Dar-El-Beida, Algeria (DAAG) 36-43N 003-15E 25M
Oct 18, 2019 - 02:00 AM EDT / 2019.10.18 0600 UTC
Wind: Calm:0
Visibility: greater than 7 mile(s):0
Sky conditions: partly cloudy
Temperature: 55 F (13 C)
Dew Point: 53 F (12 C)
Relative Humidity: 93%
Pressure (altimeter): 30.06 in. Hg (1018 hPa)
ob: DAAG 180600Z 00000KT 9999 FEW020 SCT200 13/12 Q1018
cycle: 6

Station Type Date Time Source
DAAG TAF 2019/10/18 06:33 UTC NOAA

TAF TAF DAAG 180500Z 1806/1906 VRB02KT 9999 FEW020 PROB30
TEMPO 1806/1808 5000 BR
BECMG 1809/1812 32010KT
BECMG 1816/1819 VRB02KT

Example: see airport list